Time;durP1;ratioP1;P1;durP2;ratioP2;P2;SDS_P1;SDS_P2;PMS_P1;PMS_P2;Temp;Humidity;BMP_temperature;BMP_pressure;BME280_temperature;BME280_humidity;BME280_pressure;Samples;Min_cycle;Max_cycle;Signal;HPM_P1;HPM_P2
2023/03/05 00:01:09;;;;;;;13.90;8.93;;;;;;;3.74;100.00;101318.72;5080520;28;20031;-77
2023/03/05 00:03:34;;;;;;;13.68;8.75;;;;;;;3.72;100.00;101309.84;5084746;28;20035;-78
2023/03/05 00:06:00;;;;;;;12.23;8.45;;;;;;;3.71;100.00;101310.94;5117385;28;20026;-78
2023/03/05 00:08:26;;;;;;;13.68;8.43;;;;;;;3.72;100.00;101309.03;5069270;28;20028;-77
2023/03/05 00:11:06;;;;;;;12.13;7.15;;;;;;;3.70;100.00;101308.41;5091493;28;20114;-77
2023/03/05 00:13:31;;;;;;;10.90;7.45;;;;;;;3.69;100.00;101309.50;5066471;28;20023;-77
2023/03/05 00:15:57;;;;;;;11.75;7.68;;;;;;;3.69;100.00;101307.56;5066997;28;20034;-77
2023/03/05 00:18:22;;;;;;;9.85;7.35;;;;;;;3.69;100.00;101315.81;5083993;28;20028;-78
2023/03/05 00:20:48;;;;;;;11.52;7.18;;;;;;;3.70;100.00;101314.75;5082523;28;20061;-77
2023/03/05 00:23:13;;;;;;;10.63;6.85;;;;;;;3.67;100.00;101312.44;5093910;28;20027;-78
2023/03/05 00:25:39;;;;;;;10.27;6.93;;;;;;;3.68;100.00;101305.06;5049054;28;20057;-78
2023/03/05 00:28:05;;;;;;;11.93;7.57;;;;;;;3.67;100.00;101308.88;5080507;28;20468;-77
2023/03/05 00:30:31;;;;;;;13.90;9.10;;;;;;;3.66;100.00;101315.44;5099694;28;20019;-77
2023/03/05 00:32:56;;;;;;;11.65;7.85;;;;;;;3.63;100.00;101300.25;5091793;28;20019;-77
2023/03/05 00:35:22;;;;;;;12.45;7.32;;;;;;;3.64;100.00;101292.84;5080675;28;20081;-77
2023/03/05 00:37:47;;;;;;;11.38;7.90;;;;;;;3.65;100.00;101300.00;5079936;28;20020;-77
2023/03/05 00:40:13;;;;;;;12.05;7.43;;;;;;;3.65;100.00;101297.25;5086604;28;20584;-78
2023/03/05 00:42:38;;;;;;;11.52;7.47;;;;;;;3.62;100.00;101300.47;5083229;28;20053;-77
2023/03/05 00:45:05;;;;;;;12.50;8.05;;;;;;;3.60;100.00;101303.47;5098237;27;20047;-77
2023/03/05 00:47:31;;;;;;;12.85;7.93;;;;;;;3.61;100.00;101296.88;5059834;28;20092;-77
2023/03/05 00:49:56;;;;;;;13.27;8.32;;;;;;;3.61;100.00;101296.06;5056018;28;20520;-77
2023/03/05 00:52:22;;;;;;;10.98;7.80;;;;;;;3.59;100.00;101301.75;5079918;28;20034;-78
2023/03/05 00:54:47;;;;;;;12.27;8.80;;;;;;;3.57;100.00;101295.69;5046546;28;20084;-77
2023/03/05 00:57:12;;;;;;;13.10;8.20;;;;;;;3.56;100.00;101296.72;5079568;28;20491;-77
2023/03/05 00:59:38;;;;;;;17.08;9.93;;;;;;;3.56;100.00;101299.47;5046410;28;20035;-77
2023/03/05 01:02:03;;;;;;;14.13;8.90;;;;;;;3.54;100.00;101296.13;5080096;28;20035;-78
2023/03/05 01:04:29;;;;;;;20.50;11.15;;;;;;;3.52;100.00;101287.28;5077155;28;20039;-77
2023/03/05 01:06:54;;;;;;;14.70;8.90;;;;;;;3.50;100.00;101286.66;5099050;28;20038;-77
2023/03/05 01:09:20;;;;;;;13.00;8.32;;;;;;;3.51;100.00;101288.34;5050188;28;20039;-77
2023/03/05 01:11:46;;;;;;;14.27;8.57;;;;;;;3.52;100.00;101288.13;5100251;28;20032;-77
2023/03/05 01:14:11;;;;;;;15.80;8.85;;;;;;;3.50;100.00;101284.75;5100199;28;20031;-78
2023/03/05 01:16:37;;;;;;;16.50;10.35;;;;;;;3.51;100.00;101282.84;5118245;28;20024;-78
2023/03/05 01:19:02;;;;;;;14.23;8.70;;;;;;;3.50;100.00;101278.41;5083320;28;20398;-78
2023/03/05 01:21:28;;;;;;;14.60;8.98;;;;;;;3.49;100.00;101277.59;5050925;28;20028;-78
2023/03/05 01:23:53;;;;;;;13.20;8.18;;;;;;;3.47;100.00;101278.88;5075689;28;20028;-77
2023/03/05 01:26:19;;;;;;;14.10;8.27;;;;;;;3.47;100.00;101274.22;5079878;28;20492;-78
2023/03/05 01:28:44;;;;;;;14.45;8.63;;;;;;;3.49;100.00;101271.25;5077587;28;20636;-77
2023/03/05 01:31:10;;;;;;;13.73;8.60;;;;;;;3.47;100.00;101265.16;5082897;28;20034;-77
2023/03/05 01:33:36;;;;;;;12.50;8.20;;;;;;;3.47;100.00;101246.75;5050179;28;20034;-77
2023/03/05 01:36:06;;;;;;;13.27;8.50;;;;;;;3.44;100.00;101249.97;5066676;28;20118;-78
2023/03/05 01:38:31;;;;;;;17.63;10.38;;;;;;;3.44;100.00;101257.38;5049733;28;20039;-78
2023/03/05 01:40:56;;;;;;;14.23;8.23;;;;;;;3.44;100.00;101241.72;5066190;28;20032;-77
2023/03/05 01:43:26;;;;;;;16.08;9.07;;;;;;;3.42;100.00;101241.09;5072704;28;20027;-77
2023/03/05 01:46:16;;;;;;;14.32;8.93;;;;;;;3.43;100.00;101231.00;5074493;27;20051;-78
2023/03/05 01:48:43;;;;;;;17.48;9.38;;;;;;;3.43;100.00;101233.75;5120369;27;20038;-77
2023/03/05 01:51:08;;;;;;;17.77;10.48;;;;;;;3.42;100.00;101232.88;5117559;27;20042;-77
2023/03/05 01:53:34;;;;;;;19.48;11.13;;;;;;;3.43;100.00;101225.50;5090383;27;20495;-77
2023/03/05 01:55:59;;;;;;;16.48;9.90;;;;;;;3.39;100.00;101218.78;5087059;28;20031;-77
2023/03/05 01:58:25;;;;;;;17.05;10.27;;;;;;;3.39;100.00;101216.88;5103910;27;20041;-77
2023/03/05 02:00:51;;;;;;;16.70;10.27;;;;;;;3.39;100.00;101219.59;5103568;28;20475;-78
2023/03/05 02:03:17;;;;;;;14.65;9.60;;;;;;;3.38;100.00;101204.22;5067773;28;20047;-78
2023/03/05 02:05:43;;;;;;;14.95;8.77;;;;;;;3.38;100.00;101206.13;5098600;27;20053;-78
2023/03/05 02:08:13;;;;;;;14.20;9.63;;;;;;;3.38;100.00;101197.88;5090139;27;20027;-78
2023/03/05 02:10:44;;;;;;;15.75;9.50;;;;;;;3.35;100.00;101200.00;5090787;27;20054;-77
2023/03/05 02:13:14;;;;;;;14.82;9.13;;;;;;;3.37;100.00;101194.28;5106007;28;20031;-78
2023/03/05 02:15:40;;;;;;;16.05;9.73;;;;;;;3.35;100.00;101189.03;5062979;28;20480;-78
2023/03/05 02:18:06;;;;;;;17.70;9.88;;;;;;;3.35;100.00;101183.53;5081462;28;20036;-78
2023/03/05 02:20:43;;;;;;;14.00;8.90;;;;;;;3.33;100.00;101180.19;5065924;27;20058;-78
2023/03/05 02:23:09;;;;;;;16.52;9.15;;;;;;;3.32;100.00;101181.25;5096549;28;20028;-77
2023/03/05 02:25:34;;;;;;;13.63;9.30;;;;;;;3.30;100.00;101169.66;5114523;27;20027;-77
2023/03/05 02:28:31;;;;;;;14.70;8.25;;;;;;;3.31;100.00;101173.25;5119399;27;20540;-78
2023/03/05 02:30:56;;;;;;;13.77;8.73;;;;;;;3.32;100.00;101162.03;5090934;28;20130;-77
2023/03/05 02:33:22;;;;;;;14.43;8.35;;;;;;;3.30;100.00;101164.16;5093251;27;20030;-77
2023/03/05 02:35:47;;;;;;;13.50;9.02;;;;;;;3.32;100.00;101162.03;5065103;28;20034;-77
2023/03/05 02:38:13;;;;;;;16.98;10.00;;;;;;;3.32;100.00;101164.78;5068338;27;20471;-77
2023/03/05 02:40:39;;;;;;;14.00;8.75;;;;;;;3.30;100.00;101153.19;5081291;28;20048;-77
2023/03/05 02:43:05;;;;;;;14.25;8.88;;;;;;;3.31;100.00;101143.88;5107093;28;20764;-78
2023/03/05 02:45:30;;;;;;;14.75;9.25;;;;;;;3.28;100.00;101147.06;5083486;27;20075;-78
2023/03/05 02:47:55;;;;;;;13.45;9.13;;;;;;;3.28;100.00;101141.59;5118495;27;20035;-78
2023/03/05 02:50:21;;;;;;;13.52;9.07;;;;;;;3.28;100.00;101136.09;5084578;27;20027;-78
2023/03/05 02:52:46;;;;;;;14.02;8.95;;;;;;;3.26;100.00;101141.00;5112027;28;20046;-78
2023/03/05 02:55:12;;;;;;;13.60;8.43;;;;;;;3.28;100.00;101147.06;5134714;27;20031;-78
2023/03/05 02:57:37;;;;;;;14.77;9.45;;;;;;;3.27;100.00;101139.09;5057851;28;20024;-77
2023/03/05 03:00:04;;;;;;;14.23;9.27;;;;;;;3.26;100.00;101137.38;5095366;28;20081;-78
2023/03/05 03:02:29;;;;;;;17.90;11.20;;;;;;;3.26;100.00;101135.50;5101448;27;20078;-77
2023/03/05 03:04:55;;;;;;;18.73;11.85;;;;;;;3.23;100.00;101141.47;5118545;27;20015;-77
2023/03/05 03:07:20;;;;;;;17.05;11.82;;;;;;;3.20;100.00;101130.09;5113304;27;20039;-77
2023/03/05 03:09:46;;;;;;;20.30;12.10;;;;;;;3.17;100.00;101125.88;5097848;28;20361;-78
2023/03/05 03:12:11;;;;;;;21.83;12.88;;;;;;;3.17;100.00;101130.53;5118523;27;20030;-78
2023/03/05 03:14:38;;;;;;;16.85;10.45;;;;;;;3.13;100.00;101132.91;5081207;28;20088;-77
2023/03/05 03:17:08;;;;;;;18.05;11.25;;;;;;;3.16;100.00;101135.19;5101295;27;20031;-77
2023/03/05 03:19:34;;;;;;;19.10;12.07;;;;;;;3.20;100.00;101133.66;5079659;28;20076;-77
2023/03/05 03:22:00;;;;;;;22.83;12.00;;;;;;;3.17;100.00;101136.88;5093369;27;20398;-78
2023/03/05 03:24:25;;;;;;;21.95;12.30;;;;;;;3.16;100.00;101134.38;5097772;28;20035;-78
2023/03/05 03:26:51;;;;;;;21.40;12.80;;;;;;;3.18;100.00;101126.75;5076311;27;20729;-77
2023/03/05 03:29:16;;;;;;;23.00;13.93;;;;;;;3.12;100.00;101117.50;5100478;27;20526;-77
2023/03/05 03:31:44;;;;;;;23.35;13.73;;;;;;;3.10;100.00;101123.25;5107184;28;20369;-77
2023/03/05 03:34:11;;;;;;;22.17;13.70;;;;;;;3.10;100.00;101109.50;5078302;28;20098;-77
2023/03/05 03:36:37;;;;;;;25.15;13.90;;;;;;;3.10;100.00;101100.44;5084590;27;20024;-77
2023/03/05 03:39:04;;;;;;;22.23;13.52;;;;;;;3.08;100.00;101097.09;5097326;27;20356;-77
2023/03/05 03:41:30;;;;;;;24.05;13.00;;;;;;;3.07;100.00;101082.53;5090648;27;20377;-78
2023/03/05 03:43:56;;;;;;;27.13;14.38;;;;;;;3.05;100.00;101081.91;5084007;27;20066;-77
2023/03/05 03:46:21;;;;;;;26.00;14.55;;;;;;;3.03;100.00;101075.81;5088334;28;20055;-77
2023/03/05 03:48:49;;;;;;;24.45;13.85;;;;;;;3.04;100.00;101076.69;5082635;27;20039;-77
2023/03/05 03:51:15;;;;;;;24.63;14.05;;;;;;;3.05;100.00;101078.34;5094484;28;20040;-78
2023/03/05 03:53:40;;;;;;;25.50;14.75;;;;;;;3.02;100.00;101073.31;5078566;28;20019;-77
2023/03/05 03:56:06;;;;;;;24.45;13.73;;;;;;;3.04;100.00;101087.66;5092575;28;20039;-78
2023/03/05 03:58:31;;;;;;;26.55;15.32;;;;;;;3.03;100.00;101080.47;5088652;27;20031;-77
2023/03/05 04:00:57;;;;;;;26.27;14.52;;;;;;;3.03;100.00;101074.97;5100679;28;20023;-78
2023/03/05 04:03:22;;;;;;;28.33;14.63;;;;;;;3.04;100.00;101069.28;5084070;28;20019;-77
2023/03/05 04:05:48;;;;;;;26.55;14.15;;;;;;;3.04;100.00;101073.94;5097125;28;20057;-78
2023/03/05 04:08:13;;;;;;;26.58;14.27;;;;;;;3.05;100.00;101072.84;5096583;28;20027;-78
2023/03/05 04:10:39;;;;;;;23.52;13.20;;;;;;;3.03;100.00;101064.84;5067365;28;20027;-78
2023/03/05 04:13:05;;;;;;;25.05;14.27;;;;;;;3.01;100.00;101063.38;5066793;28;20476;-77
2023/03/05 04:15:31;;;;;;;26.42;14.55;;;;;;;3.01;100.00;101067.00;5067271;28;20394;-77
2023/03/05 04:17:56;;;;;;;26.35;14.55;;;;;;;3.00;100.00;101062.56;5096876;27;20036;-78
2023/03/05 04:20:22;;;;;;;26.90;14.68;;;;;;;3.02;100.00;101057.69;5098633;28;20031;-78
2023/03/05 04:22:48;;;;;;;22.10;13.88;;;;;;;3.04;100.00;101061.03;5082490;28;20026;-77
2023/03/05 04:25:13;;;;;;;21.27;13.85;;;;;;;3.03;100.00;101048.38;5083145;28;20027;-77
2023/03/05 04:27:41;;;;;;;23.20;13.68;;;;;;;3.06;100.00;101055.31;5083311;28;20031;-78
2023/03/05 04:30:08;;;;;;;25.95;13.95;;;;;;;3.06;100.00;101058.06;5079931;28;20032;-78
2023/03/05 04:32:33;;;;;;;23.08;13.45;;;;;;;3.09;100.00;101052.09;5101085;28;20048;-78
2023/03/05 04:34:59;;;;;;;20.35;12.50;;;;;;;3.10;100.00;101053.78;5098150;28;20020;-77
2023/03/05 04:37:24;;;;;;;24.48;13.40;;;;;;;3.11;100.00;101055.47;5117254;28;20032;-77
2023/03/05 04:39:51;;;;;;;23.13;14.05;;;;;;;3.09;100.00;101046.59;5083165;27;20114;-77
2023/03/05 04:42:18;;;;;;;23.95;13.23;;;;;;;3.07;100.00;101051.50;5096679;27;20034;-78
2023/03/05 04:44:43;;;;;;;22.17;13.57;;;;;;;3.05;100.00;101045.41;5100991;28;20484;-77
2023/03/05 04:47:09;;;;;;;26.98;13.73;;;;;;;3.03;100.00;101044.78;5062734;28;20052;-78
2023/03/05 04:49:34;;;;;;;21.85;12.52;;;;;;;3.03;100.00;101047.53;5063820;28;20047;-77
2023/03/05 04:51:59;;;;;;;21.40;12.20;;;;;;;3.02;100.00;101049.44;5092103;28;20028;-77
2023/03/05 04:54:25;;;;;;;17.83;11.80;;;;;;;3.03;100.00;101044.78;5080946;28;20036;-77
2023/03/05 04:56:50;;;;;;;21.17;11.95;;;;;;;3.02;100.00;101041.22;5082543;28;20035;-77
2023/03/05 04:59:16;;;;;;;20.63;11.88;;;;;;;3.04;100.00;101046.50;5054264;28;20031;-77
2023/03/05 05:01:42;;;;;;;17.38;11.00;;;;;;;3.05;100.00;101050.91;5083176;28;20027;-78
2023/03/05 05:04:07;;;;;;;20.30;11.27;;;;;;;3.05;100.00;101048.16;5075112;28;20028;-77
2023/03/05 05:06:33;;;;;;;18.75;11.38;;;;;;;3.05;100.00;101034.44;5081062;28;20080;-77
2023/03/05 05:08:58;;;;;;;17.60;10.88;;;;;;;3.03;100.00;101040.13;5078165;28;20020;-77
2023/03/05 05:11:23;;;;;;;19.98;11.73;;;;;;;3.03;100.00;101031.06;5070490;28;20050;-77
2023/03/05 05:13:49;;;;;;;17.48;10.95;;;;;;;3.04;100.00;101036.34;5050156;28;20529;-78
2023/03/05 05:16:15;;;;;;;21.52;11.38;;;;;;;3.02;100.00;101037.66;5082935;28;20024;-77
2023/03/05 05:18:40;;;;;;;19.38;11.60;;;;;;;3.03;100.00;101033.81;5083354;28;20028;-77
2023/03/05 05:21:07;;;;;;;19.33;11.20;;;;;;;3.04;100.00;101032.78;5083469;28;20035;-77
2023/03/05 05:23:33;;;;;;;18.98;11.13;;;;;;;3.02;100.00;101033.00;5074333;28;20059;-77
2023/03/05 05:26:00;;;;;;;20.10;11.38;;;;;;;3.00;100.00;101026.88;5049865;28;20034;-78
2023/03/05 05:28:25;;;;;;;18.67;11.25;;;;;;;2.98;100.00;101022.69;5079724;28;20028;-78
2023/03/05 05:30:51;;;;;;;19.30;11.75;;;;;;;2.99;100.00;101025.22;5081337;28;20036;-77
2023/03/05 05:33:16;;;;;;;19.80;12.02;;;;;;;2.99;100.00;101030.72;5083385;28;20365;-77
2023/03/05 05:35:42;;;;;;;18.25;11.32;;;;;;;2.98;100.00;101033.66;5075276;28;20034;-77
2023/03/05 05:38:07;;;;;;;19.27;11.10;;;;;;;3.00;100.00;101029.63;5083064;28;20027;-77
2023/03/05 05:40:33;;;;;;;20.55;12.25;;;;;;;2.95;100.00;101028.66;5077063;28;20380;-77
2023/03/05 05:42:58;;;;;;;17.05;11.30;;;;;;;2.95;100.00;101023.16;5070638;28;20024;-77
2023/03/05 05:45:24;;;;;;;20.40;11.82;;;;;;;2.94;100.00;101024.25;5066757;28;20051;-77
2023/03/05 05:47:49;;;;;;;18.55;11.38;;;;;;;2.94;100.00;101021.50;5076738;27;20027;-77
2023/03/05 05:50:15;;;;;;;20.73;11.70;;;;;;;2.91;100.00;101023.63;5103234;27;20034;-77
2023/03/05 05:52:41;;;;;;;21.33;11.52;;;;;;;2.89;100.00;101012.03;5085553;27;20019;-78
2023/03/05 05:55:07;;;;;;;18.38;10.55;;;;;;;2.94;100.00;101014.09;5086080;27;20501;-78
2023/03/05 05:57:33;;;;;;;18.40;10.73;;;;;;;2.90;100.00;101010.16;5060011;28;20051;-77
2023/03/05 05:59:58;;;;;;;18.15;10.98;;;;;;;2.89;100.00;101006.56;5080122;28;20030;-78
2023/03/05 06:02:26;;;;;;;17.08;10.48;;;;;;;2.92;100.00;101005.25;5076343;27;20027;-77
2023/03/05 06:04:52;;;;;;;18.70;10.15;;;;;;;2.93;100.00;100998.72;5103868;27;20027;-78
2023/03/05 06:07:17;;;;;;;16.70;9.85;;;;;;;2.94;100.00;101005.88;5082658;28;20057;-77
2023/03/05 06:09:43;;;;;;;16.02;9.23;;;;;;;2.94;100.00;101005.03;5078955;28;20029;-77
2023/03/05 06:12:08;;;;;;;15.82;10.05;;;;;;;2.89;100.00;101001.06;5102682;27;20041;-78
2023/03/05 06:14:34;;;;;;;14.75;10.00;;;;;;;2.87;100.00;101005.97;5099014;28;20039;-78
2023/03/05 06:16:59;;;;;;;17.15;9.30;;;;;;;2.93;100.00;101012.44;5076582;28;20028;-77
2023/03/05 06:19:24;;;;;;;15.90;9.65;;;;;;;2.88;100.00;101006.78;5086882;27;20023;-77
2023/03/05 06:21:50;;;;;;;16.52;9.80;;;;;;;2.88;100.00;101006.78;5090067;27;20034;-77
2023/03/05 06:24:18;;;;;;;17.45;10.45;;;;;;;2.86;100.00;101009.75;5095193;27;20889;-77
2023/03/05 06:26:45;;;;;;;16.48;9.93;;;;;;;2.86;100.00;101009.75;5103432;28;20027;-77
2023/03/05 06:29:11;;;;;;;19.73;11.20;;;;;;;2.84;100.00;101013.78;5101275;28;20028;-77
2023/03/05 06:31:37;;;;;;;19.00;10.15;;;;;;;2.83;100.00;101012.97;5092408;28;20395;-77
2023/03/05 06:34:02;;;;;;;15.80;9.77;;;;;;;2.82;100.00;101015.94;5089457;27;20032;-77
2023/03/05 06:36:28;;;;;;;15.18;9.23;;;;;;;2.82;100.00;101016.78;5106562;27;20041;-77
2023/03/05 06:38:54;;;;;;;16.77;9.32;;;;;;;2.85;100.00;101018.22;5105890;27;20023;-77
2023/03/05 06:41:21;;;;;;;17.98;9.48;;;;;;;2.86;100.00;101008.94;5111277;27;20022;-77
2023/03/05 06:43:47;;;;;;;15.90;9.40;;;;;;;2.87;100.00;101005.97;5075526;27;20027;-77
2023/03/05 06:46:14;;;;;;;16.52;9.90;;;;;;;2.87;100.00;101011.44;5074395;28;20447;-78
2023/03/05 06:48:40;;;;;;;15.85;9.15;;;;;;;2.86;100.00;101007.00;5119133;27;20066;-77
2023/03/05 06:51:14;;;;;;;14.82;8.70;;;;;;;2.85;100.00;101007.25;5085150;27;20039;-77
2023/03/05 06:53:40;;;;;;;14.05;9.02;;;;;;;2.83;100.00;101004.72;5099576;28;20426;-77
2023/03/05 06:56:06;;;;;;;13.75;9.00;;;;;;;2.83;100.00;101001.16;5085130;27;20088;-78
2023/03/05 06:58:31;;;;;;;13.77;8.93;;;;;;;2.85;100.00;101007.25;5102378;27;20023;-77
2023/03/05 07:00:56;;;;;;;15.68;9.02;;;;;;;2.84;100.00;101011.06;5081108;28;20479;-77
2023/03/05 07:03:22;;;;;;;14.40;8.25;;;;;;;2.84;100.00;101013.78;5080333;28;20035;-77
2023/03/05 07:05:47;;;;;;;12.98;8.40;;;;;;;2.85;100.00;101008.09;5068125;27;20383;-78
2023/03/05 07:08:13;;;;;;;13.55;8.82;;;;;;;2.84;100.00;101016.53;5100785;27;20030;-78
2023/03/05 07:10:39;;;;;;;12.90;8.02;;;;;;;2.85;100.00;101013.59;5088014;27;20049;-77
2023/03/05 07:13:05;;;;;;;11.77;7.55;;;;;;;2.84;100.00;101011.06;5084565;27;20057;-77
2023/03/05 07:15:30;;;;;;;12.32;8.57;;;;;;;2.84;100.00;101017.41;5101406;27;20054;-78
2023/03/05 07:17:56;;;;;;;13.98;8.00;;;;;;;2.85;100.00;101015.50;5100542;27;20042;-78
2023/03/05 07:20:21;;;;;;;13.90;8.38;;;;;;;2.86;100.00;101014.41;5101611;27;20030;-77
2023/03/05 07:22:47;;;;;;;12.35;8.13;;;;;;;2.84;100.00;101005.56;5084442;27;20031;-77
2023/03/05 07:25:12;;;;;;;12.98;8.88;;;;;;;2.85;100.00;101008.09;5084142;27;20061;-77
2023/03/05 07:27:38;;;;;;;14.98;9.50;;;;;;;2.88;100.00;101013.13;5100534;27;20106;-77
2023/03/05 07:30:04;;;;;;;13.57;9.00;;;;;;;2.88;100.00;101004.88;5067734;27;20023;-78
2023/03/05 07:32:29;;;;;;;14.57;8.20;;;;;;;2.89;100.00;101008.47;5067793;27;20113;-77
2023/03/05 07:34:55;;;;;;;13.35;8.68;;;;;;;2.89;100.00;101013.94;5080649;28;20448;-78
2023/03/05 07:37:20;;;;;;;12.25;8.10;;;;;;;2.89;100.00;101006.56;5115283;27;20027;-77
2023/03/05 07:39:46;;;;;;;15.45;9.70;;;;;;;2.91;100.00;101006.34;5097650;28;20047;-78
2023/03/05 07:42:11;;;;;;;14.45;9.57;;;;;;;2.93;100.00;101008.84;5064453;27;20042;-77
2023/03/05 07:44:37;;;;;;;14.32;8.75;;;;;;;2.93;100.00;101009.69;5097539;28;20062;-77
2023/03/05 07:47:04;;;;;;;13.18;8.43;;;;;;;2.95;100.00;101009.44;5063425;28;20050;-77
2023/03/05 07:49:29;;;;;;;13.02;9.07;;;;;;;2.98;100.00;101006.22;5101202;27;20027;-77
2023/03/05 07:51:54;;;;;;;13.35;8.43;;;;;;;2.98;100.00;101008.97;5078010;27;20033;-77
2023/03/05 07:54:20;;;;;;;12.75;7.90;;;;;;;3.01;100.00;101005.75;5083701;28;20509;-78
2023/03/05 07:56:45;;;;;;;13.38;8.35;;;;;;;3.03;100.00;101006.38;5114186;28;20031;-77
2023/03/05 07:59:11;;;;;;;13.25;8.52;;;;;;;3.05;100.00;101001.50;5108626;27;20472;-77
2023/03/05 08:01:37;;;;;;;14.75;9.27;;;;;;;3.06;100.00;100998.50;5080934;28;20027;-77
2023/03/05 08:04:03;;;;;;;17.92;11.05;;;;;;;3.11;100.00;100995.91;5100538;28;20545;-77
2023/03/05 08:06:28;;;;;;;14.32;10.20;;;;;;;3.12;100.00;101002.22;5080592;28;20035;-77
2023/03/05 08:08:54;;;;;;;17.25;10.57;;;;;;;3.14;100.00;100995.44;5128394;28;20023;-77
2023/03/05 08:11:20;;;;;;;12.18;8.68;;;;;;;3.17;100.00;100999.63;5096870;28;20038;-77
2023/03/05 08:13:45;;;;;;;12.35;8.23;;;;;;;3.20;100.00;101001.91;5097240;28;20027;-78
2023/03/05 08:16:13;;;;;;;12.60;8.30;;;;;;;3.23;100.00;100993.22;5099731;28;20055;-77
2023/03/05 08:18:38;;;;;;;11.82;8.30;;;;;;;3.26;100.00;100992.75;5103544;27;20425;-77
2023/03/05 08:21:04;;;;;;;11.43;7.95;;;;;;;3.29;100.00;100989.53;5087723;27;20031;-77
2023/03/05 08:23:30;;;;;;;14.93;9.30;;;;;;;3.33;100.00;100995.41;5084510;27;20038;-77
2023/03/05 08:25:55;;;;;;;14.60;9.07;;;;;;;3.37;100.00;100980.09;5071444;27;20023;-78
2023/03/05 08:28:21;;;;;;;14.98;9.20;;;;;;;3.41;100.00;100978.59;5067540;28;20426;-78
2023/03/05 08:30:46;;;;;;;14.27;8.88;;;;;;;3.44;100.00;100974.53;5117135;27;20549;-77
2023/03/05 08:33:13;;;;;;;15.10;8.85;;;;;;;3.47;100.00;100969.41;5077537;27;20041;-77
2023/03/05 08:35:38;;;;;;;12.35;8.50;;;;;;;3.51;100.00;100972.50;5104603;27;20035;-77
2023/03/05 08:38:04;;;;;;;15.80;10.02;;;;;;;3.55;100.00;100968.22;5070810;27;20023;-78
2023/03/05 08:40:29;;;;;;;17.20;9.32;;;;;;;3.59;100.00;100969.41;5104161;27;20024;-78
2023/03/05 08:42:54;;;;;;;12.68;7.90;;;;;;;3.63;100.00;100981.63;5109279;28;20059;-77
2023/03/05 08:45:20;;;;;;;10.75;7.93;;;;;;;3.67;100.00;100977.31;5087098;27;20058;-78
2023/03/05 08:47:45;;;;;;;13.15;7.93;;;;;;;3.71;100.00;100972.19;5104376;27;20027;-78
2023/03/05 08:50:11;;;;;;;15.30;9.18;;;;;;;3.76;100.00;100966.81;5083092;27;20034;-78
2023/03/05 08:52:36;;;;;;;19.20;11.02;;;;;;;3.83;100.00;100974.94;5071912;27;20513;-78
2023/03/05 08:55:02;;;;;;;14.30;9.10;;;;;;;3.83;100.00;100975.78;5103617;27;20046;-77
2023/03/05 08:57:27;;;;;;;14.98;9.10;;;;;;;3.87;100.00;100970.63;5095152;28;20119;-77
2023/03/05 08:59:53;;;;;;;14.50;9.63;;;;;;;3.92;100.00;100973.50;5111429;27;20631;-77
2023/03/05 09:02:18;;;;;;;14.88;10.55;;;;;;;3.98;100.00;100972.53;5088517;27;20027;-78
2023/03/05 09:04:44;;;;;;;22.38;12.57;;;;;;;4.02;100.00;100962.75;5086740;27;20035;-78
2023/03/05 09:07:10;;;;;;;18.25;10.75;;;;;;;4.05;100.00;100961.44;5069828;27;20046;-77
2023/03/05 09:09:35;;;;;;;17.65;10.98;;;;;;;4.10;100.00;100969.81;5100648;27;20027;-77
2023/03/05 09:12:01;;;;;;;18.65;10.73;;;;;;;4.12;100.00;100962.97;5082191;28;20118;-77
2023/03/05 09:14:27;;;;;;;19.08;12.00;;;;;;;4.17;100.00;100959.53;5073298;27;20027;-77
2023/03/05 09:16:56;;;;;;;17.08;12.25;;;;;;;4.22;100.00;100963.22;5086748;27;20027;-78
2023/03/05 09:19:21;;;;;;;36.20;18.88;;;;;;;4.28;100.00;100963.34;5119877;27;20084;-78
2023/03/05 09:21:47;;;;;;;17.25;11.70;;;;;;;4.30;100.00;100958.44;5103909;27;20471;-78
2023/03/05 09:24:12;;;;;;;18.75;12.63;;;;;;;4.34;100.00;100952.19;5086695;27;20535;-78
2023/03/05 09:26:39;;;;;;;21.30;12.35;;;;;;;4.41;100.00;100952.91;5082288;28;20028;-77
2023/03/05 09:29:07;;;;;;;22.00;13.77;;;;;;;4.46;100.00;100952.19;5100662;27;20023;-78
2023/03/05 09:31:33;;;;;;;19.17;12.48;;;;;;;4.53;100.00;100957.53;5094627;28;20032;-78
2023/03/05 09:33:58;;;;;;;19.77;12.10;;;;;;;4.53;100.00;100952.03;5065608;27;20558;-77
2023/03/05 09:36:26;;;;;;;19.08;12.05;;;;;;;4.56;100.00;100957.88;5103689;27;20031;-78
2023/03/05 09:38:51;;;;;;;24.95;12.43;;;;;;;4.58;100.00;100952.16;5113664;27;20608;-78
2023/03/05 09:41:20;;;;;;;18.20;11.65;;;;;;;4.61;100.00;100959.91;5090703;27;20068;-78
2023/03/05 09:43:45;;;;;;;19.27;11.90;;;;;;;4.60;100.00;100953.59;5123763;27;20164;-78
2023/03/05 09:46:29;;;;;;;18.13;12.45;;;;;;;4.66;100.00;100949.84;5098994;28;20083;-78
2023/03/05 09:49:07;;;;;;;19.60;12.10;;;;;;;4.66;100.00;100947.09;5130906;27;20055;-78
2023/03/05 09:51:35;;;;;;;17.90;11.43;;;;;;;4.68;100.00;100944.09;5102716;27;20118;-78
2023/03/05 09:54:30;;;;;;;13.23;10.07;;;;;;;4.73;100.00;100943.38;5107147;27;20023;-78
2023/03/05 09:56:57;;;;;;;16.25;11.25;;;;;;;4.75;100.00;100933.78;5119485;27;20042;-78
2023/03/05 09:59:30;;;;;;;16.60;11.30;;;;;;;4.78;100.00;100935.22;5089075;28;20031;-78
2023/03/05 10:02:00;;;;;;;14.60;10.90;;;;;;;4.84;100.00;100931.47;5111359;27;20026;-78
2023/03/05 10:04:47;;;;;;;17.73;12.02;;;;;;;4.85;100.00;100924.91;5100532;27;20020;-77
2023/03/05 10:07:20;;;;;;;17.77;11.07;;;;;;;4.91;100.00;100926.69;5065039;27;20027;-77
2023/03/05 10:09:48;;;;;;;16.55;10.43;;;;;;;4.92;100.00;100928.34;5081569;28;20390;-78
2023/03/05 10:12:31;;;;;;;17.50;11.27;;;;;;;4.98;100.00;100921.84;5111308;27;20061;-78
2023/03/05 10:14:59;;;;;;;16.20;10.90;;;;;;;5.01;100.00;100924.09;5090138;27;20096;-78
2023/03/05 10:17:54;;;;;;;15.90;10.80;;;;;;;5.07;100.00;100914.00;5119221;27;20035;-78
2023/03/05 10:20:37;;;;;;;16.40;11.05;;;;;;;5.13;100.00;100913.03;5119979;27;20475;-77
2023/03/05 10:23:24;;;;;;;;;;;;;;;5.19;100.00;100922.22;5086357;27;20532;-78
2023/03/05 10:26:11;;;;;;;14.88;10.35;;;;;;;5.24;100.00;100911.31;5102269;27;20374;-78
2023/03/05 10:29:03;;;;;;;14.50;9.50;;;;;;;5.32;100.00;100911.72;5137618;27;20147;-78
2023/03/05 10:31:50;;;;;;;15.38;10.00;;;;;;;5.33;100.00;100904.28;5105999;28;20036;-78
2023/03/05 10:34:41;;;;;;;15.82;9.43;;;;;;;5.35;100.00;100910.41;5100395;27;20535;-77
2023/03/05 10:37:32;;;;;;;15.02;9.82;;;;;;;5.43;100.00;100906.38;5082255;27;20028;-78
2023/03/05 10:40:09;;;;;;;13.77;9.10;;;;;;;5.47;100.00;100915.81;5101936;27;20053;-78
2023/03/05 10:42:47;;;;;;;14.32;9.07;;;;;;;5.48;100.00;100903.72;5141431;27;20031;-78
2023/03/05 10:45:40;;;;;;;12.43;9.05;;;;;;;5.52;100.00;100902.97;5104289;27;20040;-78
2023/03/05 10:48:25;;;;;;;14.45;8.82;;;;;;;5.55;100.00;100907.97;5102918;28;20027;-78
2023/03/05 10:51:19;;;;;;;13.73;9.20;;;;;;;5.55;100.00;100909.91;5094098;27;20471;-78
2023/03/05 10:53:58;;;;;;;13.15;8.48;;;;;;;5.59;100.00;100903.59;5091460;27;20022;-78
2023/03/05 10:56:25;;;;;;;17.70;11.00;;;;;;;5.61;100.00;100892.34;5105263;27;20038;-78
2023/03/05 10:58:51;;;;;;;15.88;8.15;;;;;;;5.57;100.00;100886.53;5073127;28;20039;-78
2023/03/05 11:01:17;;;;;;;13.98;8.48;;;;;;;5.60;100.00;100887.94;5088499;27;20402;-78
2023/03/05 11:03:55;;;;;;;11.95;8.02;;;;;;;5.59;100.00;100878.81;5140433;27;20038;-78
2023/03/05 11:06:45;;;;;;;12.10;7.90;;;;;;;5.59;100.00;100878.81;5087774;27;20084;-77
2023/03/05 11:09:19;;;;;;;15.07;9.10;;;;;;;5.59;100.00;100881.56;5101332;27;20616;-78
2023/03/05 11:12:17;;;;;;;13.45;8.57;;;;;;;5.61;100.00;100875.81;5121768;27;20087;-78
2023/03/05 11:14:46;;;;;;;11.40;8.50;;;;;;;5.65;100.00;100867.88;5101232;27;20023;-78
2023/03/05 11:17:32;;;;;;;12.80;8.02;;;;;;;5.67;100.00;100868.47;5084197;27;20027;-78